Time;durP1;ratioP1;P1;durP2;ratioP2;P2;SDS_P1;SDS_P2;PMS_P1;PMS_P2;Temp;Humidity;BMP_temperature;BMP_pressure;BME280_temperature;BME280_humidity;BME280_pressure;Samples;Min_cycle;Max_cycle;Signal;HPM_P1;HPM_P2
2022/01/16 00:02:08;;;;;;;77.10;30.02;;;;;;;;;;5011631;28;20046;-65
2022/01/16 00:04:28;;;;;;;81.07;29.25;;;;;;;;;;5010867;28;20552;-65
2022/01/16 00:06:54;;;;;;;84.35;30.77;;;;;;;;;;5007795;28;20521;-65
2022/01/16 00:09:21;;;;;;;82.85;31.05;;;;;;;;;;5010869;28;20042;-65
2022/01/16 00:11:47;;;;;;;88.85;34.78;;;;;;;;;;5010533;28;20046;-65
2022/01/16 00:14:13;;;;;;;77.13;30.48;;;;;;;;;;5007254;28;20037;-65
2022/01/16 00:16:40;;;;;;;88.88;33.50;;;;;;;;;;5010679;28;20060;-65
2022/01/16 00:19:06;;;;;;;88.07;30.08;;;;;;;;;;5007668;28;20038;-65
2022/01/16 00:21:36;;;;;;;83.32;33.10;;;;;;;;;;5009730;28;20046;-65
2022/01/16 00:24:03;;;;;;;82.80;31.45;;;;;;;;;;5010702;28;20116;-65
2022/01/16 00:26:29;;;;;;;91.22;31.63;;;;;;;;;;5006370;28;20050;-65
2022/01/16 00:28:55;;;;;;;95.18;36.17;;;;;;;;;;5005991;28;20093;-65
2022/01/16 00:31:23;;;;;;;93.82;35.33;;;;;;;;;;5005190;28;20430;-65
2022/01/16 00:33:49;;;;;;;82.95;32.22;;;;;;;;;;5007562;28;20453;-65
2022/01/16 00:36:17;;;;;;;78.28;32.05;;;;;;;;;;5009372;28;20057;-65
2022/01/16 00:38:44;;;;;;;89.93;34.50;;;;;;;;;;5010303;28;20180;-65
2022/01/16 00:41:12;;;;;;;98.40;37.75;;;;;;;;;;5009778;28;20057;-65
2022/01/16 00:43:38;;;;;;;99.75;36.70;;;;;;;;;;5010289;28;20064;-65
2022/01/16 00:46:04;;;;;;;111.22;39.00;;;;;;;;;;5010280;28;20042;-65
2022/01/16 00:48:30;;;;;;;98.35;38.35;;;;;;;;;;5007452;28;20180;-65
2022/01/16 00:50:57;;;;;;;98.03;37.05;;;;;;;;;;5040410;28;20132;-65
2022/01/16 00:53:23;;;;;;;94.18;34.55;;;;;;;;;;5009890;28;21740;-65
2022/01/16 00:55:49;;;;;;;99.25;35.22;;;;;;;;;;5009220;28;20057;-64
2022/01/16 00:58:15;;;;;;;105.43;38.65;;;;;;;;;;5009873;28;20038;-65
2022/01/16 01:00:41;;;;;;;112.20;39.33;;;;;;;;;;5010366;28;20082;-65
2022/01/16 01:03:07;;;;;;;105.95;37.38;;;;;;;;;;5009199;28;20437;-65
2022/01/16 01:05:35;;;;;;;104.97;38.08;;;;;;;;;;5024652;28;20112;-65
2022/01/16 01:08:02;;;;;;;111.63;37.83;;;;;;;;;;5009666;28;20466;-65
2022/01/16 01:10:32;;;;;;;123.85;39.83;;;;;;;;;;5007951;28;20060;-65
2022/01/16 01:13:09;;;;;;;124.10;39.13;;;;;;;;;;5010304;28;20058;-65
2022/01/16 01:15:42;;;;;;;119.60;39.47;;;;;;;;;;5007625;28;20137;-65
2022/01/16 01:18:09;;;;;;;129.40;39.42;;;;;;;;;;5011010;28;20077;-65
2022/01/16 01:20:36;;;;;;;125.13;39.35;;;;;;;;;;5011069;28;20066;-65
2022/01/16 01:23:02;;;;;;;118.43;38.17;;;;;;;;;;5008062;28;20053;-65
2022/01/16 01:25:28;;;;;;;134.27;39.65;;;;;;;;;;5010651;28;20038;-65
2022/01/16 01:27:54;;;;;;;132.52;39.90;;;;;;;;;;5009474;28;20081;-65
2022/01/16 01:30:24;;;;;;;137.57;42.67;;;;;;;;;;5008720;28;20046;-65
2022/01/16 01:32:51;;;;;;;144.55;40.92;;;;;;;;;;5008376;28;20096;-64
2022/01/16 01:35:18;;;;;;;146.23;42.55;;;;;;;;;;5006795;28;20124;-65
2022/01/16 01:37:45;;;;;;;135.75;42.63;;;;;;;;;;5008647;28;20049;-65
2022/01/16 01:40:14;;;;;;;153.48;45.40;;;;;;;;;;5013969;28;20119;-65
2022/01/16 01:43:02;;;;;;;163.57;45.72;;;;;;;;;;5015005;28;20431;-65
2022/01/16 01:51:12;;;;;;;175.02;48.80;;;;;;;;;;5006230;28;20095;-65
2022/01/16 01:53:39;;;;;;;198.18;47.22;;;;;;;;;;5045192;28;20038;-64
2022/01/16 01:56:06;;;;;;;205.25;48.47;;;;;;;;;;5013912;28;20362;-64
2022/01/16 01:58:32;;;;;;;198.13;48.97;;;;;;;;;;5011911;28;20441;-65
2022/01/16 02:00:58;;;;;;;220.88;51.97;;;;;;;;;;5012711;28;20417;-65
2022/01/16 02:03:42;;;;;;;187.75;49.40;;;;;;;;;;5014648;28;20461;-65
2022/01/16 02:06:09;;;;;;;200.40;50.35;;;;;;;;;;5011106;28;20046;-65
2022/01/16 02:08:36;;;;;;;204.25;49.75;;;;;;;;;;5012314;28;20049;-65
2022/01/16 02:11:03;;;;;;;210.00;52.45;;;;;;;;;;5012104;28;20049;-65
2022/01/16 02:13:33;;;;;;;229.68;54.25;;;;;;;;;;5011697;28;20073;-65
2022/01/16 02:30:01;;;;;;;340.00;59.67;;;;;;;;;;5001821;28;20129;-65
2022/01/16 02:34:57;;;;;;;380.50;60.67;;;;;;;;;;5008487;28;20156;-65
2022/01/16 02:37:24;;;;;;;380.85;65.25;;;;;;;;;;5013233;28;20088;-65
2022/01/16 02:39:52;;;;;;;377.02;63.55;;;;;;;;;;5012042;28;20375;-65
2022/01/16 02:42:25;;;;;;;401.70;63.78;;;;;;;;;;5010518;28;20739;-65
2022/01/16 02:45:01;;;;;;;386.17;63.30;;;;;;;;;;5011099;28;20068;-65
2022/01/16 02:47:27;;;;;;;374.08;65.72;;;;;;;;;;5011815;28;20069;-65
2022/01/16 02:49:54;;;;;;;316.55;59.97;;;;;;;;;;5012792;28;20026;-64
2022/01/16 02:52:21;;;;;;;358.90;63.65;;;;;;;;;;5011389;28;20050;-65
2022/01/16 02:54:49;;;;;;;343.52;62.67;;;;;;;;;;5007697;28;20204;-65
2022/01/16 02:57:17;;;;;;;371.40;61.95;;;;;;;;;;5013074;28;20449;-65
2022/01/16 02:59:48;;;;;;;346.55;61.40;;;;;;;;;;5011478;28;20117;-65
2022/01/16 03:02:14;;;;;;;374.05;63.28;;;;;;;;;;5011928;28;20045;-64
2022/01/16 03:04:41;;;;;;;374.27;61.72;;;;;;;;;;5009064;28;20049;-65
2022/01/16 03:07:07;;;;;;;429.27;64.22;;;;;;;;;;5008955;28;20045;-65
2022/01/16 03:10:13;;;;;;;412.35;64.22;;;;;;;;;;5011872;28;20569;-65
2022/01/16 03:12:19;;;;;;;420.25;63.95;;;;;;;;;;5011658;28;20054;-64
2022/01/16 03:14:46;;;;;;;427.63;66.32;;;;;;;;;;5012421;28;20041;-64
2022/01/16 03:17:12;;;;;;;438.27;64.75;;;;;;;;;;5012146;28;20089;-65
2022/01/16 03:22:23;;;;;;;413.63;63.53;;;;;;;;;;5008789;28;20406;-64
2022/01/16 03:24:49;;;;;;;423.85;64.68;;;;;;;;;;5010889;28;20092;-65
2022/01/16 03:27:17;;;;;;;417.45;66.78;;;;;;;;;;5011978;28;20046;-64
2022/01/16 03:29:44;;;;;;;365.58;62.08;;;;;;;;;;5011318;28;20625;-64
2022/01/16 03:32:12;;;;;;;431.33;65.75;;;;;;;;;;5005318;28;20041;-65
2022/01/16 03:34:38;;;;;;;392.00;63.05;;;;;;;;;;5010735;28;20195;-65
2022/01/16 03:37:04;;;;;;;396.65;64.50;;;;;;;;;;5011718;28;20401;-64
2022/01/16 03:39:31;;;;;;;400.60;65.25;;;;;;;;;;5012198;28;20473;-65
2022/01/16 03:41:59;;;;;;;407.27;66.22;;;;;;;;;;5010891;28;20038;-64
2022/01/16 03:44:25;;;;;;;387.50;68.85;;;;;;;;;;5011513;28;20056;-64
2022/01/16 03:46:51;;;;;;;387.92;67.38;;;;;;;;;;5009787;28;20405;-65
2022/01/16 03:49:19;;;;;;;392.77;64.97;;;;;;;;;;5007571;28;20053;-64
2022/01/16 03:51:46;;;;;;;391.45;66.47;;;;;;;;;;5010498;28;20093;-65
2022/01/16 03:54:13;;;;;;;393.33;67.80;;;;;;;;;;5013171;28;20042;-64
2022/01/16 03:56:40;;;;;;;385.63;66.10;;;;;;;;;;5012025;28;20045;-65
2022/01/16 03:59:06;;;;;;;364.73;65.03;;;;;;;;;;5011337;28;20438;-65
2022/01/16 04:01:32;;;;;;;350.00;64.93;;;;;;;;;;5007715;28;20030;-65
2022/01/16 04:03:58;;;;;;;349.42;70.82;;;;;;;;;;5012010;28;20458;-65
2022/01/16 04:06:25;;;;;;;376.92;68.15;;;;;;;;;;5009336;28;20042;-65
2022/01/16 04:08:53;;;;;;;332.17;66.05;;;;;;;;;;5011838;28;20372;-64
2022/01/16 04:11:20;;;;;;;337.33;68.57;;;;;;;;;;5010364;28;20132;-65
2022/01/16 04:13:51;;;;;;;366.08;70.80;;;;;;;;;;5011041;28;20038;-64
2022/01/16 04:16:17;;;;;;;330.83;69.57;;;;;;;;;;5011920;28;20050;-65
2022/01/16 04:18:43;;;;;;;335.15;65.63;;;;;;;;;;5009563;28;20037;-65
2022/01/16 04:21:09;;;;;;;334.48;64.68;;;;;;;;;;5007857;28;20038;-65
2022/01/16 04:23:36;;;;;;;343.30;68.30;;;;;;;;;;5006556;28;20124;-65
2022/01/16 04:26:02;;;;;;;371.98;68.68;;;;;;;;;;5009174;28;20046;-65
2022/01/16 04:28:28;;;;;;;364.65;67.60;;;;;;;;;;5010673;28;20443;-64
2022/01/16 04:30:54;;;;;;;377.80;69.53;;;;;;;;;;5001211;28;20132;-65
2022/01/16 04:33:20;;;;;;;354.13;68.15;;;;;;;;;;5007445;28;20437;-64
2022/01/16 04:35:47;;;;;;;369.63;69.30;;;;;;;;;;5011564;28;20034;-64
2022/01/16 04:38:13;;;;;;;356.88;69.15;;;;;;;;;;5011439;28;20366;-65
2022/01/16 04:40:44;;;;;;;341.77;71.15;;;;;;;;;;5010730;28;20038;-65
2022/01/16 04:45:57;;;;;;;349.55;68.43;;;;;;;;;;5008730;28;20116;-65
2022/01/16 04:48:23;;;;;;;362.67;69.93;;;;;;;;;;5010837;28;20397;-64
2022/01/16 04:50:49;;;;;;;344.38;72.85;;;;;;;;;;5011536;28;20725;-64
2022/01/16 04:53:16;;;;;;;346.45;70.53;;;;;;;;;;5008677;28;20541;-64
2022/01/16 04:55:43;;;;;;;356.35;76.53;;;;;;;;;;5008686;28;20038;-64
2022/01/16 04:58:09;;;;;;;318.90;70.97;;;;;;;;;;5004379;28;20454;-64
2022/01/16 05:00:35;;;;;;;337.05;74.18;;;;;;;;;;5041539;28;20042;-65
2022/01/16 05:03:01;;;;;;;330.42;74.45;;;;;;;;;;5009939;28;20428;-64
2022/01/16 05:05:27;;;;;;;319.50;77.05;;;;;;;;;;5011636;28;20480;-64
2022/01/16 05:07:54;;;;;;;350.23;75.72;;;;;;;;;;5010102;28;20085;-65
2022/01/16 05:10:20;;;;;;;349.98;78.55;;;;;;;;;;5011506;28;20048;-65
2022/01/16 05:12:50;;;;;;;343.63;73.00;;;;;;;;;;5012730;28;20061;-65
2022/01/16 05:18:01;;;;;;;360.25;77.07;;;;;;;;;;5011612;28;20077;-65
2022/01/16 05:20:28;;;;;;;360.02;79.90;;;;;;;;;;5014761;28;20041;-64
2022/01/16 05:22:54;;;;;;;368.42;78.43;;;;;;;;;;5008085;28;20041;-64
2022/01/16 05:25:20;;;;;;;379.23;81.68;;;;;;;;;;5009153;28;20057;-64
2022/01/16 05:27:46;;;;;;;383.65;82.18;;;;;;;;;;5013349;28;20038;-64
2022/01/16 05:30:12;;;;;;;349.13;76.32;;;;;;;;;;5010150;28;20053;-65
2022/01/16 05:32:39;;;;;;;373.58;81.63;;;;;;;;;;5015074;28;20041;-64
2022/01/16 05:35:05;;;;;;;313.90;74.72;;;;;;;;;;5014077;28;20037;-64
2022/01/16 05:37:31;;;;;;;362.48;81.40;;;;;;;;;;5013184;28;20037;-64
2022/01/16 05:39:57;;;;;;;331.42;76.60;;;;;;;;;;5011028;28;20038;-64
2022/01/16 05:42:23;;;;;;;312.15;77.88;;;;;;;;;;5014870;28;20185;-64
2022/01/16 05:44:49;;;;;;;306.02;73.93;;;;;;;;;;5012300;28;20045;-65
2022/01/16 05:47:16;;;;;;;304.10;74.63;;;;;;;;;;5013438;28;20056;-64
2022/01/16 05:49:42;;;;;;;311.35;73.07;;;;;;;;;;5045143;28;20050;-64
2022/01/16 05:52:08;;;;;;;307.40;76.72;;;;;;;;;;5009840;28;20069;-64
2022/01/16 05:54:34;;;;;;;304.77;74.25;;;;;;;;;;5014433;28;20049;-64
2022/01/16 05:57:00;;;;;;;298.08;75.90;;;;;;;;;;5012349;28;20778;-64
2022/01/16 05:59:27;;;;;;;283.00;77.30;;;;;;;;;;5013980;28;20049;-64
2022/01/16 06:01:53;;;;;;;267.77;72.63;;;;;;;;;;5014347;28;20045;-64
2022/01/16 06:04:19;;;;;;;267.08;70.72;;;;;;;;;;5013671;28;20444;-64
2022/01/16 06:06:45;;;;;;;256.10;69.70;;;;;;;;;;5012583;28;20100;-64
2022/01/16 06:09:11;;;;;;;254.80;70.55;;;;;;;;;;5027603;28;20426;-64
2022/01/16 06:11:37;;;;;;;237.05;67.28;;;;;;;;;;5011707;28;20121;-64
2022/01/16 06:14:03;;;;;;;231.98;66.97;;;;;;;;;;5013921;28;20185;-64
2022/01/16 06:16:30;;;;;;;240.23;66.43;;;;;;;;;;5012505;28;20053;-64
2022/01/16 06:18:57;;;;;;;223.07;66.88;;;;;;;;;;5013063;28;20116;-64
2022/01/16 06:21:23;;;;;;;210.60;66.80;;;;;;;;;;5012834;28;20068;-64
2022/01/16 06:23:49;;;;;;;224.75;65.20;;;;;;;;;;5012044;28;20068;-64
2022/01/16 06:26:15;;;;;;;206.55;67.05;;;;;;;;;;5012918;28;20041;-64
2022/01/16 06:28:41;;;;;;;194.15;64.88;;;;;;;;;;5012348;28;20046;-65
2022/01/16 06:31:07;;;;;;;180.63;64.75;;;;;;;;;;5008112;28;20044;-64
2022/01/16 06:33:33;;;;;;;180.75;62.97;;;;;;;;;;5036690;28;20052;-64
2022/01/16 06:36:01;;;;;;;162.25;61.40;;;;;;;;;;5013223;28;20069;-64
2022/01/16 06:38:28;;;;;;;177.75;63.70;;;;;;;;;;5011951;28;20517;-64
2022/01/16 06:40:54;;;;;;;166.25;58.92;;;;;;;;;;5011772;28;20096;-64
2022/01/16 06:43:20;;;;;;;165.15;58.08;;;;;;;;;;5013423;28;20053;-65
2022/01/16 06:45:46;;;;;;;160.63;60.13;;;;;;;;;;5013629;28;20034;-64
2022/01/16 06:48:12;;;;;;;148.65;57.55;;;;;;;;;;5012488;28;20046;-64
2022/01/16 06:50:38;;;;;;;158.20;58.10;;;;;;;;;;5012089;28;20393;-65
2022/01/16 06:53:04;;;;;;;150.32;56.65;;;;;;;;;;5013114;28;20054;-64
2022/01/16 06:55:31;;;;;;;147.50;57.55;;;;;;;;;;5011508;28;20050;-64
2022/01/16 06:57:57;;;;;;;141.95;56.35;;;;;;;;;;5013282;28;20072;-65
2022/01/16 07:00:23;;;;;;;129.27;53.17;;;;;;;;;;5012168;28;20034;-65
2022/01/16 07:02:49;;;;;;;140.70;54.63;;;;;;;;;;5012647;28;20056;-64
2022/01/16 07:05:15;;;;;;;134.93;52.03;;;;;;;;;;5012706;28;20060;-64
2022/01/16 07:07:41;;;;;;;120.00;51.53;;;;;;;;;;5010891;28;20053;-65
2022/01/16 07:10:08;;;;;;;119.28;48.90;;;;;;;;;;5010016;28;20046;-65
2022/01/16 07:12:34;;;;;;;109.93;50.13;;;;;;;;;;5010888;28;20537;-64
2022/01/16 07:15:00;;;;;;;104.57;46.45;;;;;;;;;;5010900;28;20395;-64
2022/01/16 07:17:26;;;;;;;108.13;47.40;;;;;;;;;;5009339;28;20052;-64
2022/01/16 07:19:52;;;;;;;100.60;46.08;;;;;;;;;;5009204;28;20044;-64
2022/01/16 07:22:21;;;;;;;89.57;42.13;;;;;;;;;;5010354;28;20050;-65
2022/01/16 07:24:47;;;;;;;83.35;40.35;;;;;;;;;;5018673;28;20046;-65
2022/01/16 07:27:14;;;;;;;84.55;40.45;;;;;;;;;;5015648;28;20044;-64
2022/01/16 07:29:40;;;;;;;78.55;40.78;;;;;;;;;;5017089;28;20080;-65
2022/01/16 07:32:07;;;;;;;66.38;35.47;;;;;;;;;;5019455;28;20048;-65
2022/01/16 07:34:33;;;;;;;77.18;36.13;;;;;;;;;;5017363;28;20107;-65
2022/01/16 07:36:59;;;;;;;67.13;33.90;;;;;;;;;;5015371;28;20106;-65
2022/01/16 07:39:25;;;;;;;68.32;32.70;;;;;;;;;;5015742;28;20033;-65
2022/01/16 07:41:51;;;;;;;60.80;33.00;;;;;;;;;;5013215;28;20121;-65
2022/01/16 07:44:18;;;;;;;54.45;30.92;;;;;;;;;;5009513;28;20053;-65
2022/01/16 07:46:44;;;;;;;57.40;30.55;;;;;;;;;;5012067;28;20060;-65
2022/01/16 07:49:10;;;;;;;56.42;31.50;;;;;;;;;;5010474;28;20046;-65
2022/01/16 07:51:36;;;;;;;57.85;30.83;;;;;;;;;;5007875;28;20116;-64
2022/01/16 07:54:02;;;;;;;61.42;30.77;;;;;;;;;;5012215;28;20091;-65
2022/01/16 07:56:28;;;;;;;56.28;30.27;;;;;;;;;;5008423;28;20048;-65
2022/01/16 07:58:54;;;;;;;55.65;29.17;;;;;;;;;;5011638;28;20139;-65
2022/01/16 08:01:20;;;;;;;57.97;30.23;;;;;;;;;;5009593;28;20042;-65
2022/01/16 08:03:47;;;;;;;60.67;28.52;;;;;;;;;;5009102;28;20867;-64
2022/01/16 08:06:15;;;;;;;55.85;29.02;;;;;;;;;;5011702;28;20124;-65
2022/01/16 08:08:41;;;;;;;51.22;27.98;;;;;;;;;;5011890;28;21016;-65
2022/01/16 08:11:09;;;;;;;59.75;28.05;;;;;;;;;;4997671;28;20088;-65
2022/01/16 08:13:35;;;;;;;67.93;29.58;;;;;;;;;;5014759;28;20116;-65
2022/01/16 08:16:06;;;;;;;56.70;28.55;;;;;;;;;;5023085;28;20050;-66
2022/01/16 08:18:33;;;;;;;64.10;29.38;;;;;;;;;;5018617;28;20060;-66
2022/01/16 08:20:59;;;;;;;65.05;28.38;;;;;;;;;;5017770;28;20120;-66
2022/01/16 08:23:25;;;;;;;60.33;28.67;;;;;;;;;;5018557;28;20125;-66
2022/01/16 08:25:51;;;;;;;62.88;32.08;;;;;;;;;;5020774;28;20041;-66
2022/01/16 08:28:18;;;;;;;61.50;29.08;;;;;;;;;;5016738;28;20045;-66
2022/01/16 08:30:44;;;;;;;63.15;31.05;;;;;;;;;;5019106;28;20055;-64
2022/01/16 08:33:10;;;;;;;67.85;31.10;;;;;;;;;;5011265;28;20167;-64
2022/01/16 08:35:36;;;;;;;59.83;29.00;;;;;;;;;;5016484;28;20045;-64
2022/01/16 08:38:03;;;;;;;63.78;31.25;;;;;;;;;;5021761;28;20049;-64
2022/01/16 08:40:29;;;;;;;60.63;29.92;;;;;;;;;;5017011;28;20062;-64
2022/01/16 08:42:56;;;;;;;61.92;33.55;;;;;;;;;;5016044;28;20050;-64
2022/01/16 08:45:22;;;;;;;62.70;32.20;;;;;;;;;;5017464;28;20473;-64
2022/01/16 08:47:48;;;;;;;61.17;31.35;;;;;;;;;;5021041;28;20049;-64
2022/01/16 08:50:15;;;;;;;61.63;31.88;;;;;;;;;;5020545;28;20050;-64
2022/01/16 08:52:41;;;;;;;54.60;30.15;;;;;;;;;;5022000;28;20428;-64
2022/01/16 08:55:08;;;;;;;63.35;32.53;;;;;;;;;;5024135;28;20959;-64
2022/01/16 08:57:34;;;;;;;64.32;31.23;;;;;;;;;;5021817;28;20041;-64
2022/01/16 09:00:00;;;;;;;66.90;32.03;;;;;;;;;;5023429;28;20120;-64
2022/01/16 09:02:27;;;;;;;59.40;31.00;;;;;;;;;;5027823;28;20144;-64
2022/01/16 09:04:53;;;;;;;72.20;30.65;;;;;;;;;;5018704;28;20490;-64
2022/01/16 09:07:20;;;;;;;68.22;30.20;;;;;;;;;;5024230;28;20054;-64
2022/01/16 09:09:46;;;;;;;66.45;29.75;;;;;;;;;;5016075;28;20041;-64
2022/01/16 09:12:12;;;;;;;69.25;30.92;;;;;;;;;;5015902;28;20037;-64
2022/01/16 09:14:38;;;;;;;63.55;31.85;;;;;;;;;;5019912;28;20442;-64
2022/01/16 09:17:05;;;;;;;69.07;30.38;;;;;;;;;;5019015;28;20405;-64
2022/01/16 09:19:31;;;;;;;59.45;28.48;;;;;;;;;;5024090;28;20101;-64
2022/01/16 09:21:58;;;;;;;59.03;29.67;;;;;;;;;;5017181;28;20049;-64
2022/01/16 09:24:24;;;;;;;62.33;27.40;;;;;;;;;;5026019;28;20184;-67
2022/01/16 09:26:54;;;;;;;59.65;28.05;;;;;;;;;;5020535;28;20038;-65
2022/01/16 09:29:21;;;;;;;61.47;28.10;;;;;;;;;;5019841;28;20072;-65
2022/01/16 09:31:47;;;;;;;54.03;27.05;;;;;;;;;;5016495;28;20041;-65
2022/01/16 09:34:13;;;;;;;62.80;25.60;;;;;;;;;;5019615;28;20041;-65
2022/01/16 09:36:40;;;;;;;48.42;24.88;;;;;;;;;;5004927;28;20053;-66
2022/01/16 09:39:06;;;;;;;51.88;25.85;;;;;;;;;;5023872;28;20042;-66
2022/01/16 09:41:32;;;;;;;58.90;25.70;;;;;;;;;;5021612;28;20038;-66
2022/01/16 09:43:59;;;;;;;48.05;22.80;;;;;;;;;;5011476;28;20129;-66
2022/01/16 09:46:25;;;;;;;52.75;23.40;;;;;;;;;;5012299;28;20104;-65
2022/01/16 09:48:51;;;;;;;56.83;24.20;;;;;;;;;;5014278;28;20088;-66
2022/01/16 09:51:17;;;;;;;53.80;24.52;;;;;;;;;;5012414;28;20052;-66
2022/01/16 09:53:43;;;;;;;55.63;23.42;;;;;;;;;;5044537;28;20049;-66
2022/01/16 09:56:10;;;;;;;50.67;22.20;;;;;;;;;;5010329;28;20050;-66
2022/01/16 09:58:38;;;;;;;50.33;22.73;;;;;;;;;;5012835;28;20449;-66
2022/01/16 10:01:04;;;;;;;56.15;22.27;;;;;;;;;;5013868;28;20053;-66
2022/01/16 10:03:34;;;;;;;49.28;20.73;;;;;;;;;;5010039;28;20469;-65
2022/01/16 10:06:09;;;;;;;42.92;19.55;;;;;;;;;;5012871;28;20037;-65
2022/01/16 10:08:37;;;;;;;41.03;18.38;;;;;;;;;;5012066;28;20124;-66
2022/01/16 10:11:23;;;;;;;38.83;18.35;;;;;;;;;;5011411;28;20048;-66
2022/01/16 10:13:58;;;;;;;37.78;18.70;;;;;;;;;;5010997;28;20069;-66
2022/01/16 10:16:26;;;;;;;38.03;16.83;;;;;;;;;;5011361;28;20049;-66
2022/01/16 10:18:52;;;;;;;39.28;18.33;;;;;;;;;;5009312;28;20064;-66
2022/01/16 10:21:32;;;;;;;36.53;16.60;;;;;;;;;;5014213;28;20038;-66
2022/01/16 10:23:58;;;;;;;35.78;16.55;;;;;;;;;;5011795;28;20323;-66
2022/01/16 10:26:24;;;;;;;39.30;15.75;;;;;;;;;;5008864;28;20515;-66
2022/01/16 10:28:52;;;;;;;48.58;15.65;;;;;;;;;;5011947;28;20050;-66
2022/01/16 10:31:19;;;;;;;36.15;15.25;;;;;;;;;;5013176;28;20100;-64
2022/01/16 10:33:46;;;;;;;32.58;15.15;;;;;;;;;;5017492;28;20100;-64
2022/01/16 10:36:12;;;;;;;42.65;15.80;;;;;;;;;;5019803;28;20042;-64
2022/01/16 10:38:38;;;;;;;46.97;14.25;;;;;;;;;;5018291;28;20080;-65
2022/01/16 10:41:04;;;;;;;25.98;12.13;;;;;;;;;;5020879;28;20426;-64
2022/01/16 10:43:40;;;;;;;38.03;14.18;;;;;;;;;;5019100;28;20451;-65
2022/01/16 10:46:07;;;;;;;39.22;12.63;;;;;;;;;;5017709;28;20147;-64
2022/01/16 10:48:33;;;;;;;35.55;12.23;;;;;;;;;;5014058;28;20038;-71
2022/01/16 10:51:01;;;;;;;29.05;11.55;;;;;;;;;;5014538;28;20048;-65
2022/01/16 10:53:28;;;;;;;27.20;11.25;;;;;;;;;;5013617;28;20053;-64
2022/01/16 10:55:55;;;;;;;30.17;11.00;;;;;;;;;;5012946;28;20053;-64
2022/01/16 10:58:38;;;;;;;26.10;10.00;;;;;;;;;;5013106;28;20034;-65
2022/01/16 11:01:13;;;;;;;33.20;11.32;;;;;;;;;;5023799;28;20046;-65
2022/01/16 11:03:39;;;;;;;35.97;10.50;;;;;;;;;;5014508;28;20121;-64
2022/01/16 11:06:06;;;;;;;23.50;9.27;;;;;;;;;;5018862;28;20050;-65
2022/01/16 11:08:32;;;;;;;28.10;9.60;;;;;;;;;;5014117;28;20049;-64
2022/01/16 11:10:59;;;;;;;26.65;10.10;;;;;;;;;;5012892;28;20045;-64
2022/01/16 11:13:29;;;;;;;32.63;9.45;;;;;;;;;;5018075;28;20049;-64
2022/01/16 11:15:59;;;;;;;31.58;9.23;;;;;;;;;;5016065;28;20125;-65
2022/01/16 11:18:26;;;;;;;23.60;8.25;;;;;;;;;;5021605;28;20072;-64
2022/01/16 11:23:33;;;;;;;30.35;8.60;;;;;;;;;;5014097;28;20110;-65
2022/01/16 11:26:00;;;;;;;28.25;7.85;;;;;;;;;;5007101;28;20050;-67
2022/01/16 11:28:26;;;;;;;26.88;8.63;;;;;;;;;;5010286;28;20073;-64
2022/01/16 11:30:54;;;;;;;28.80;7.90;;;;;;;;;;5012048;28;20164;-64
2022/01/16 11:33:21;;;;;;;21.20;7.60;;;;;;;;;;5012174;28;20050;-64
2022/01/16 11:35:51;;;;;;;20.30;7.65;;;;;;;;;;5011335;28;20045;-64
2022/01/16 11:38:19;;;;;;;22.30;8.15;;;;;;;;;;5027635;28;20519;-64
2022/01/16 11:40:46;;;;;;;18.90;7.78;;;;;;;;;;5017572;28;20037;-64
2022/01/16 11:43:12;;;;;;;19.52;7.65;;;;;;;;;;5017827;28;20056;-64
2022/01/16 11:45:46;;;;;;;19.15;6.20;;;;;;;;;;5019029;28;20050;-64
2022/01/16 11:48:12;;;;;;;23.80;8.30;;;;;;;;;;5017863;28;20042;-64
2022/01/16 11:50:38;;;;;;;23.58;7.95;;;;;;;;;;5017711;28;20052;-65
2022/01/16 11:53:04;;;;;;;18.95;7.70;;;;;;;;;;5018966;28;20085;-65
2022/01/16 11:55:33;;;;;;;25.10;8.10;;;;;;;;;;5015725;28;20042;-65
2022/01/16 11:58:01;;;;;;;28.55;7.75;;;;;;;;;;5016366;28;20046;-65
2022/01/16 12:00:42;;;;;;;20.33;7.82;;;;;;;;;;5015656;28;20095;-65
2022/01/16 12:03:28;;;;;;;17.25;7.30;;;;;;;;;;5018337;28;20149;-65
2022/01/16 12:05:56;;;;;;;19.15;7.38;;;;;;;;;;5014203;28;20474;-65
2022/01/16 12:08:34;;;;;;;19.65;7.03;;;;;;;;;;5044670;28;20076;-66
2022/01/16 12:11:00;;;;;;;24.20;7.38;;;;;;;;;;5009242;28;20045;-65
2022/01/16 12:13:44;;;;;;;17.92;7.45;;;;;;;;;;5043892;28;20049;-65
2022/01/16 12:16:29;;;;;;;20.77;7.43;;;;;;;;;;5011098;28;20140;-65
2022/01/16 12:18:55;;;;;;;19.15;6.97;;;;;;;;;;5012917;28;20392;-64
2022/01/16 12:21:30;;;;;;;19.88;7.00;;;;;;;;;;5012226;28;20137;-64
2022/01/16 12:23:56;;;;;;;19.52;7.70;;;;;;;;;;5014077;28;20048;-65
2022/01/16 12:26:34;;;;;;;18.92;8.50;;;;;;;;;;5019405;28;20051;-65
2022/01/16 12:29:00;;;;;;;21.77;8.60;;;;;;;;;;5009001;28;20061;-65
2022/01/16 12:31:58;;;;;;;25.65;8.23;;;;;;;;;;5009298;28;20046;-65
2022/01/16 12:34:44;;;;;;;23.75;8.15;;;;;;;;;;5011201;28;20494;-65
2022/01/16 12:37:37;;;;;;;16.33;7.90;;;;;;;;;;5012823;28;20089;-65
2022/01/16 12:40:04;;;;;;;17.67;7.65;;;;;;;;;;5014062;28;20536;-64
2022/01/16 12:42:30;;;;;;;20.08;8.02;;;;;;;;;;5015557;28;20037;-65
2022/01/16 12:44:57;;;;;;;19.33;7.18;;;;;;;;;;5018461;28;20128;-65
2022/01/16 12:47:24;;;;;;;23.08;8.82;;;;;;;;;;5018540;28;20055;-64
2022/01/16 12:49:52;;;;;;;19.67;8.60;;;;;;;;;;5018168;28;20234;-65
2022/01/16 12:52:18;;;;;;;19.20;7.85;;;;;;;;;;5019695;28;20081;-64
2022/01/16 12:54:50;;;;;;;24.30;7.68;;;;;;;;;;5017884;28;20053;-64
2022/01/16 12:57:25;;;;;;;23.92;7.70;;;;;;;;;;5014036;28;20046;-64
2022/01/16 12:59:51;;;;;;;20.52;7.70;;;;;;;;;;5010279;28;20084;-64
2022/01/16 13:02:17;;;;;;;18.42;7.80;;;;;;;;;;5011041;28;20045;-64
2022/01/16 13:04:45;;;;;;;18.63;7.97;;;;;;;;;;5010597;28;20121;-64
2022/01/16 13:07:13;;;;;;;22.20;7.80;;;;;;;;;;5007766;28;20062;-65
2022/01/16 13:09:39;;;;;;;28.25;8.60;;;;;;;;;;5011126;28;20061;-64
2022/01/16 13:12:07;;;;;;;18.80;7.85;;;;;;;;;;5010733;28;20136;-64
2022/01/16 13:14:36;;;;;;;22.00;8.60;;;;;;;;;;5010170;28;20072;-64
2022/01/16 13:17:05;;;;;;;21.17;9.57;;;;;;;;;;5007003;28;20069;-64
2022/01/16 13:22:12;;;;;;;23.15;8.75;;;;;;;;;;5006456;28;20050;-64
2022/01/16 13:24:39;;;;;;;28.27;8.90;;;;;;;;;;5010872;28;20045;-64
2022/01/16 13:27:08;;;;;;;24.75;8.90;;;;;;;;;;5010347;28;20038;-64
2022/01/16 13:29:37;;;;;;;26.05;9.20;;;;;;;;;;5010084;28;20053;-64
2022/01/16 13:32:04;;;;;;;25.88;11.43;;;;;;;;;;5026155;28;20103;-64
2022/01/16 13:34:49;;;;;;;44.17;10.45;;;;;;;;;;5013686;28;20157;-64
2022/01/16 13:37:17;;;;;;;29.15;10.10;;;;;;;;;;5007755;28;20084;-64
2022/01/16 13:39:44;;;;;;;24.50;8.88;;;;;;;;;;5010977;28;20048;-64
2022/01/16 13:42:13;;;;;;;29.58;9.40;;;;;;;;;;5011709;28;20497;-64
2022/01/16 13:44:39;;;;;;;37.03;9.48;;;;;;;;;;5012728;28;20117;-64
2022/01/16 13:47:05;;;;;;;30.52;9.57;;;;;;;;;;5011994;28;20133;-64
2022/01/16 13:49:31;;;;;;;22.67;9.25;;;;;;;;;;5013369;28;20038;-64
2022/01/16 13:51:59;;;;;;;28.77;9.45;;;;;;;;;;5013025;28;20084;-64
2022/01/16 13:54:30;;;;;;;24.98;9.52;;;;;;;;;;5013967;28;20132;-64
2022/01/16 13:56:57;;;;;;;24.58;8.63;;;;;;;;;;5012973;28;20038;-63
2022/01/16 13:59:24;;;;;;;22.60;8.60;;;;;;;;;;5013880;28;20426;-64
2022/01/16 14:01:51;;;;;;;22.10;9.15;;;;;;;;;;5012577;28;20088;-64
2022/01/16 14:04:17;;;;;;;20.52;9.43;;;;;;;;;;5012073;28;20099;-65
2022/01/16 14:06:49;;;;;;;23.73;10.85;;;;;;;;;;5006685;28;20355;-64
2022/01/16 14:09:16;;;;;;;26.30;10.80;;;;;;;;;;5011361;28;20409;-65
2022/01/16 14:11:43;;;;;;;32.83;12.02;;;;;;;;;;5011186;28;20393;-68
2022/01/16 14:14:10;;;;;;;34.45;12.35;;;;;;;;;;5010370;28;20077;-64
2022/01/16 14:16:46;;;;;;;35.42;13.95;;;;;;;;;;5006897;28;20050;-64
2022/01/16 14:19:16;;;;;;;32.53;13.38;;;;;;;;;;4990643;28;20042;-63
2022/01/16 14:21:59;;;;;;;36.40;12.55;;;;;;;;;;5040216;28;20103;-64
2022/01/16 14:24:30;;;;;;;36.33;13.67;;;;;;;;;;5039700;28;20057;-64
2022/01/16 14:26:58;;;;;;;34.15;13.35;;;;;;;;;;5011955;28;20076;-64
2022/01/16 14:29:25;;;;;;;40.42;13.82;;;;;;;;;;5011057;28;20034;-64
2022/01/16 14:31:53;;;;;;;32.67;13.38;;;;;;;;;;5012190;28;20045;-64
2022/01/16 14:34:20;;;;;;;34.95;13.45;;;;;;;;;;5009971;28;20498;-64
2022/01/16 14:36:46;;;;;;;37.80;13.07;;;;;;;;;;5030700;28;20067;-64
2022/01/16 14:39:13;;;;;;;29.15;12.57;;;;;;;;;;5012682;28;20100;-64
2022/01/16 14:41:45;;;;;;;29.05;13.18;;;;;;;;;;5021373;28;20038;-64
2022/01/16 14:44:11;;;;;;;37.95;13.43;;;;;;;;;;5012433;28;20131;-64
2022/01/16 14:46:37;;;;;;;31.42;13.50;;;;;;;;;;5017565;28;20085;-64
2022/01/16 14:49:04;;;;;;;39.03;14.85;;;;;;;;;;5013641;28;20048;-64
2022/01/16 14:51:30;;;;;;;33.35;13.57;;;;;;;;;;5011422;28;20042;-64
2022/01/16 14:53:56;;;;;;;36.70;12.68;;;;;;;;;;5012027;28;20052;-64